Time;durP1;ratioP1;P1;durP2;ratioP2;P2;SDS_P1;SDS_P2;PMS_P1;PMS_P2;Temp;Humidity;BMP_temperature;BMP_pressure;BME280_temperature;BME280_humidity;BME280_pressure;Samples;Min_cycle;Max_cycle;Signal;HPM_P1;HPM_P2
2020/12/25 03:13:09;;;;;;;20.62;13.75;;;;;;;0.90;78.72;100258.21;1699965;82;21164;-56
2020/12/25 04:59:56;;;;;;;18.00;11.57;;;;;;;1.64;79.43;100116.07;1818843;79;28201;-59
2020/12/25 05:03:02;;;;;;;14.13;10.38;;;;;;;1.58;79.50;100120.62;1856718;76;21210;-60
2020/12/25 05:06:24;;;;;;;15.28;10.48;;;;;;;1.54;79.73;100118.66;1848548;77;21740;-57
2020/12/25 05:09:30;;;;;;;16.67;10.60;;;;;;;1.58;79.99;100125.16;1848725;77;21362;-58
2020/12/25 05:12:35;;;;;;;17.87;11.35;;;;;;;1.60;80.11;100133.98;1850689;76;21713;-57
2020/12/25 05:15:41;;;;;;;15.38;11.00;;;;;;;1.65;80.08;100140.70;1820994;77;21323;-59
2020/12/25 05:18:51;;;;;;;16.00;10.93;;;;;;;1.64;79.84;100128.21;1837070;78;21398;-58
2020/12/25 05:21:57;;;;;;;17.45;10.75;;;;;;;1.72;79.94;100145.11;1836973;77;21252;-58
2020/12/25 05:25:04;;;;;;;17.00;11.57;;;;;;;1.86;79.80;100139.42;1866632;76;21323;-59
2020/12/25 05:28:19;;;;;;;18.30;11.48;;;;;;;1.95;79.50;100124.68;1833222;78;21342;-58
2020/12/25 05:31:28;;;;;;;14.35;10.13;;;;;;;1.94;78.95;100130.20;1866704;77;21157;-59
2020/12/25 05:34:34;;;;;;;15.20;11.12;;;;;;;1.95;78.92;100130.59;1867188;77;21244;-59
2020/12/25 05:37:43;;;;;;;14.00;9.53;;;;;;;2.00;78.98;100133.77;1833637;78;21354;-58
2020/12/25 05:40:51;;;;;;;17.15;10.78;;;;;;;2.05;78.68;100147.71;1833796;77;21323;-58
2020/12/25 05:43:59;;;;;;;20.40;12.47;;;;;;;2.07;78.57;100152.50;1834243;77;21410;-58
2020/12/25 05:47:07;;;;;;;16.20;10.08;;;;;;;2.17;78.43;100162.91;1834041;77;21308;-58
2020/12/25 05:50:12;;;;;;;17.35;11.48;;;;;;;2.23;78.28;100180.80;1834395;77;21327;-57
2020/12/25 05:53:18;;;;;;;15.58;10.58;;;;;;;2.29;77.89;100176.71;1834054;77;21293;-57
2020/12/25 05:56:24;;;;;;;16.02;10.35;;;;;;;2.28;77.68;100165.56;1835097;77;21340;-57
2020/12/25 05:59:33;;;;;;;15.00;9.75;;;;;;;2.24;77.43;100164.95;1820373;77;21342;-57
2020/12/25 06:02:44;;;;;;;13.25;9.18;;;;;;;2.17;77.21;100157.50;1808275;79;21342;-56
2020/12/25 06:05:53;;;;;;;13.58;9.15;;;;;;;2.08;77.25;100156.42;1806511;78;21228;-56
2020/12/25 06:09:07;;;;;;;13.48;8.83;;;;;;;1.98;77.25;100152.79;1807627;79;21247;-56
2020/12/25 06:12:13;;;;;;;14.25;9.25;;;;;;;1.90;77.52;100148.52;1792038;79;21318;-57
2020/12/25 06:15:20;;;;;;;14.90;8.98;;;;;;;1.83;77.70;100149.13;1807820;79;21720;-57
2020/12/25 06:18:51;;;;;;;13.22;8.50;;;;;;;1.75;78.00;100148.42;1807814;79;21969;-57
2020/12/25 06:22:07;;;;;;;12.78;9.10;;;;;;;1.71;78.18;100152.84;1804328;79;21389;-56
2020/12/25 06:25:21;;;;;;;12.53;8.88;;;;;;;1.68;78.47;100138.27;1804615;79;21275;-57
2020/12/25 06:28:28;;;;;;;13.65;9.53;;;;;;;1.63;78.65;100158.87;1807412;79;21746;-56
2020/12/25 06:31:50;;;;;;;15.48;10.18;;;;;;;1.65;78.98;100160.09;1803945;79;21318;-57
2020/12/25 06:35:02;;;;;;;12.80;9.20;;;;;;;1.72;79.05;100166.69;1804090;79;21180;-55
2020/12/25 06:38:18;;;;;;;14.28;9.45;;;;;;;1.79;79.22;100151.25;1804055;79;21211;-56
2020/12/25 06:41:23;;;;;;;13.32;9.35;;;;;;;1.86;79.11;100147.04;1788440;79;21814;-56
2020/12/25 06:44:32;;;;;;;12.65;8.40;;;;;;;1.87;78.97;100149.26;1768686;79;21279;-56
2020/12/25 06:47:46;;;;;;;11.88;8.20;;;;;;;1.84;78.91;100138.20;1807916;79;21399;-57
2020/12/25 06:50:53;;;;;;;10.68;7.47;;;;;;;1.84;78.97;100137.38;1793357;79;21215;-57
2020/12/25 06:53:57;;;;;;;10.45;7.00;;;;;;;1.84;79.01;100136.02;1770920;81;21208;-56
2020/12/25 06:57:04;;;;;;;9.68;6.90;;;;;;;1.87;79.14;100139.81;1741153;80;21318;-58
2020/12/25 07:00:12;;;;;;;11.90;8.80;;;;;;;1.90;79.19;100132.33;1798608;76;21378;-57
2020/12/25 07:03:20;;;;;;;10.65;6.87;;;;;;;1.93;79.07;100124.45;1803462;79;21337;-57
2020/12/25 07:06:26;;;;;;;11.00;8.55;;;;;;;1.90;79.01;100124.72;1800130;79;21180;-56
2020/12/25 07:09:32;;;;;;;11.10;8.35;;;;;;;1.88;79.13;100128.02;1761499;79;21211;-58
2020/12/25 07:12:36;;;;;;;12.18;8.63;;;;;;;1.88;79.29;100126.67;1780565;79;21640;-55
2020/12/25 07:15:42;;;;;;;12.98;8.55;;;;;;;1.96;79.46;100116.09;1783197;79;21374;-57
2020/12/25 07:18:48;;;;;;;8.73;6.28;;;;;;;2.01;79.35;100121.97;1767517;80;21356;-58
2020/12/25 07:21:54;;;;;;;8.63;5.95;;;;;;;2.06;79.29;100117.05;1767985;80;21342;-59
2020/12/25 07:25:00;;;;;;;10.78;7.35;;;;;;;2.13;79.17;100115.53;1793631;79;21205;-57
2020/12/25 07:28:06;;;;;;;10.43;7.50;;;;;;;2.13;79.08;100120.94;1805898;79;21367;-57
2020/12/25 07:31:12;;;;;;;11.22;7.45;;;;;;;2.14;78.95;100118.62;1816751;78;21397;-57
2020/12/25 07:34:18;;;;;;;11.28;7.03;;;;;;;2.14;78.95;100122.67;1806153;79;21243;-57
2020/12/25 07:37:24;;;;;;;11.63;7.30;;;;;;;2.16;78.82;100128.77;1805943;79;21180;-57
2020/12/25 07:40:29;;;;;;;13.70;9.85;;;;;;;2.19;78.84;100125.84;1805994;79;21225;-57
2020/12/25 07:43:34;;;;;;;14.83;10.23;;;;;;;2.24;78.81;100127.63;1801924;79;21260;-57
2020/12/25 07:46:40;;;;;;;13.95;8.98;;;;;;;2.26;78.73;100132.42;1774127;80;21176;-57
2020/12/25 07:49:51;;;;;;;14.50;9.18;;;;;;;2.24;78.66;100130.34;1774099;80;21201;-56
2020/12/25 07:53:05;;;;;;;11.57;8.23;;;;;;;2.19;78.80;100135.30;1772552;78;21193;-59
2020/12/25 07:57:02;;;;;;;12.33;7.45;;;;;;;2.18;78.85;100131.73;1776181;76;21218;31
2020/12/25 08:00:37;;;;;;;10.78;6.60;;;;;;;2.11;78.88;100130.52;1811248;78;21719;-59
2020/12/25 08:03:59;;;;;;;9.08;6.70;;;;;;;2.14;79.30;100132.95;1776861;80;21178;-56
2020/12/25 08:07:31;;;;;;;11.85;7.37;;;;;;;2.28;79.32;100135.86;1860131;76;22272;-59
2020/12/25 08:11:39;;;;;;;11.75;7.67;;;;;;;2.24;79.29;100128.98;1796444;79;21236;-60
2020/12/25 08:19:04;;;;;;;10.30;6.80;;;;;;;2.29;79.14;100137.56;1692029;81;21890;-55
2020/12/25 08:23:22;;;;;;;9.18;6.08;;;;;;;2.32;79.10;100130.55;1675851;84;21677;-60
2020/12/25 08:27:07;;;;;;;10.90;6.58;;;;;;;2.33;78.99;100116.91;1675447;84;21232;-55
2020/12/25 11:19:55;;;;;;;4.60;3.65;;;;;;;3.70;77.30;100036.99;1849992;77;28045;-55
2020/12/25 11:23:00;;;;;;;4.60;3.62;;;;;;;3.78;76.95;100037.14;1855747;77;21366;-55
2020/12/25 11:26:06;;;;;;;5.70;3.70;;;;;;;3.83;76.66;100040.29;1832643;78;21247;-55
2020/12/25 11:29:14;;;;;;;7.58;4.87;;;;;;;3.88;76.40;100046.14;1803967;79;21224;-55
2020/12/25 11:32:19;;;;;;;13.72;8.15;;;;;;;3.91;76.16;100041.79;1803961;79;21827;-54
2020/12/25 11:35:24;;;;;;;5.35;4.12;;;;;;;3.93;75.83;100042.48;1804198;79;21346;-55
2020/12/25 11:38:30;;;;;;;5.30;4.37;;;;;;;3.88;75.54;100037.16;1803772;79;21354;-56
2020/12/25 11:41:37;;;;;;;6.95;5.72;;;;;;;3.85;75.52;100034.73;1803994;79;21342;-55
2020/12/25 11:44:43;;;;;;;7.47;5.78;;;;;;;3.85;75.49;100023.41;1804122;79;21377;-55
2020/12/25 11:47:49;;;;;;;8.05;6.87;;;;;;;3.86;75.42;100020.19;1803981;79;21342;-54
2020/12/25 11:50:57;;;;;;;10.30;8.03;;;;;;;3.89;75.30;100022.61;1803750;79;21366;-55
2020/12/25 11:54:07;;;;;;;12.53;8.70;;;;;;;3.94;75.31;100023.03;1804215;79;21185;-55
2020/12/25 11:57:13;;;;;;;12.28;8.80;;;;;;;4.02;75.13;100017.28;1803732;79;21338;-55
2020/12/25 12:00:19;;;;;;;10.10;8.00;;;;;;;4.09;74.91;100015.69;1804314;79;21759;-56
2020/12/25 12:03:26;;;;;;;8.78;7.30;;;;;;;4.15;74.79;100015.13;1804522;79;21338;-55
2020/12/25 12:06:34;;;;;;;8.13;6.58;;;;;;;4.21;74.63;100017.26;1804300;79;21402;-55
2020/12/25 12:09:41;;;;;;;7.25;6.37;;;;;;;4.31;74.42;100019.95;1804113;79;21197;-55
2020/12/25 12:12:46;;;;;;;6.47;5.03;;;;;;;4.34;74.09;100019.14;1804552;79;21804;-56
2020/12/25 12:15:52;;;;;;;5.15;4.40;;;;;;;4.33;73.87;100032.34;1804476;79;21370;-56
2020/12/25 12:18:57;;;;;;;5.12;4.30;;;;;;;4.35;73.77;100035.77;1804857;78;21263;-56
2020/12/25 12:22:03;;;;;;;5.72;3.77;;;;;;;4.35;73.61;100034.91;1806760;79;21336;-56
2020/12/25 12:25:15;;;;;;;4.45;3.72;;;;;;;4.26;73.38;100014.97;1807245;79;21803;-56
2020/12/25 12:28:20;;;;;;;5.05;4.45;;;;;;;4.21;73.60;100022.67;1807012;79;21398;-56
2020/12/25 12:31:25;;;;;;;7.10;4.58;;;;;;;4.19;73.62;100026.02;1806824;79;21299;-56
2020/12/25 12:34:31;;;;;;;9.95;6.22;;;;;;;4.18;73.60;100026.16;1807171;79;21244;-55
2020/12/25 12:37:37;;;;;;;16.52;10.55;;;;;;;4.13;73.61;100026.60;1807108;79;21196;-56
2020/12/25 12:40:42;;;;;;;15.05;9.45;;;;;;;4.16;73.81;100035.80;1807203;79;21252;-55
2020/12/25 12:43:47;;;;;;;12.47;7.17;;;;;;;4.22;73.77;100035.20;1807404;79;21351;-55
2020/12/25 12:46:53;;;;;;;10.88;5.95;;;;;;;4.23;73.70;100036.91;1807623;79;21200;-56
2020/12/25 12:49:59;;;;;;;10.35;5.20;;;;;;;4.20;73.58;100037.72;1807163;79;21361;-57
2020/12/25 12:53:03;;;;;;;6.47;3.85;;;;;;;4.21;73.69;100040.28;1807343;79;21358;-56
2020/12/25 12:56:08;;;;;;;5.33;4.00;;;;;;;4.23;73.66;100028.78;1807048;79;21188;-56
2020/12/25 12:59:14;;;;;;;7.17;4.00;;;;;;;4.22;73.61;100041.98;1807299;79;21377;-56
2020/12/25 13:02:19;;;;;;;6.12;3.55;;;;;;;4.17;73.55;100030.72;1806923;79;21425;-56
2020/12/25 13:05:25;;;;;;;8.58;4.33;;;;;;;4.11;73.73;100035.36;1807008;79;21323;-56
2020/12/25 13:08:30;;;;;;;7.00;4.55;;;;;;;4.10;73.91;100035.51;1807861;79;21220;-55
2020/12/25 13:11:36;;;;;;;7.45;4.62;;;;;;;4.11;73.97;100038.56;1807082;79;21370;-57
2020/12/25 13:14:41;;;;;;;7.15;4.20;;;;;;;4.14;73.96;100039.13;1807221;79;21200;-56
2020/12/25 13:17:47;;;;;;;6.97;4.70;;;;;;;4.18;74.04;100049.19;1807268;79;21353;-57
2020/12/25 13:20:52;;;;;;;7.97;4.65;;;;;;;4.24;74.05;100049.97;1803986;79;21370;-56
2020/12/25 13:23:58;;;;;;;7.80;5.17;;;;;;;4.29;73.81;100042.27;1803498;79;21938;-57
2020/12/25 13:27:04;;;;;;;11.20;5.70;;;;;;;4.32;73.86;100049.61;1803707;79;21385;-57
2020/12/25 13:30:09;;;;;;;13.78;8.25;;;;;;;4.37;73.80;100048.68;1803679;79;21358;-58
2020/12/25 13:33:14;;;;;;;10.78;7.95;;;;;;;4.42;73.65;100059.91;1803910;79;21795;-57
2020/12/25 13:36:21;;;;;;;13.70;9.75;;;;;;;4.46;73.60;100060.48;1803945;79;21835;-56
2020/12/25 13:39:27;;;;;;;11.65;7.90;;;;;;;4.51;73.51;100057.70;1803844;79;21693;-56
2020/12/25 13:42:33;;;;;;;10.53;7.70;;;;;;;4.52;73.42;100062.12;1803738;79;21511;-57
2020/12/25 13:45:38;;;;;;;10.23;6.72;;;;;;;4.55;73.41;100057.76;1803756;79;21397;-56
2020/12/25 13:48:44;;;;;;;13.45;7.85;;;;;;;4.57;73.34;100069.31;1803819;79;21334;-56
2020/12/25 13:51:48;;;;;;;14.20;8.68;;;;;;;4.57;73.15;100071.16;1803664;79;21334;-57
2020/12/25 13:54:54;;;;;;;12.90;7.87;;;;;;;4.53;72.99;100076.53;1803815;79;21235;-56
2020/12/25 13:58:00;;;;;;;16.90;10.28;;;;;;;4.50;72.94;100072.24;1803409;79;21350;-56
2020/12/25 14:01:06;;;;;;;22.40;13.58;;;;;;;4.48;72.99;100063.42;1803312;79;21594;-56
2020/12/25 14:04:11;;;;;;;18.65;11.68;;;;;;;4.45;72.97;100070.49;1803491;79;21752;-57
2020/12/25 14:07:16;;;;;;;13.35;9.68;;;;;;;4.43;73.05;100068.42;1803141;79;21350;-57
2020/12/25 14:10:20;;;;;;;19.40;10.58;;;;;;;4.42;73.18;100071.27;1802989;79;21745;-57
2020/12/25 14:13:26;;;;;;;22.95;13.13;;;;;;;4.40;73.33;100078.20;1802874;79;21264;-56
2020/12/25 14:16:31;;;;;;;19.42;10.60;;;;;;;4.44;73.39;100085.02;1802949;79;21286;-57
2020/12/25 14:19:37;;;;;;;21.75;11.95;;;;;;;4.47;73.41;100082.02;1801163;79;21191;-58
2020/12/25 14:22:42;;;;;;;25.25;13.43;;;;;;;4.53;73.38;100077.36;1797009;78;21184;-58
2020/12/25 14:25:48;;;;;;;22.20;12.45;;;;;;;4.55;73.30;100067.24;1775297;80;21407;-56
2020/12/25 14:28:54;;;;;;;21.02;13.03;;;;;;;4.59;73.21;100065.11;1793904;79;21234;-58
2020/12/25 14:31:59;;;;;;;22.70;14.23;;;;;;;4.56;73.16;100054.06;1794074;79;21335;-57
2020/12/25 14:35:06;;;;;;;26.90;16.42;;;;;;;4.54;73.12;100049.28;1797252;79;21397;-56
2020/12/25 14:38:12;;;;;;;27.95;18.40;;;;;;;4.52;73.12;100056.70;1801997;79;21212;-56
2020/12/25 14:41:16;;;;;;;32.95;21.15;;;;;;;4.52;73.24;100063.47;1802128;79;21235;-56
2020/12/25 14:44:21;;;;;;;22.27;12.13;;;;;;;4.53;73.10;100062.98;1802613;79;21184;-57
2020/12/25 14:47:26;;;;;;;16.48;10.18;;;;;;;4.53;73.13;100067.05;1792573;79;21394;-56
2020/12/25 14:50:32;;;;;;;18.52;10.68;;;;;;;4.53;73.17;100065.17;1792837;80;21268;-57
2020/12/25 14:53:37;;;;;;;22.35;9.15;;;;;;;4.54;73.16;100062.84;1792826;79;21355;-56
2020/12/25 14:56:43;;;;;;;19.05;9.18;;;;;;;4.54;72.99;100062.84;1789473;79;21197;-56
2020/12/25 14:59:48;;;;;;;27.80;12.43;;;;;;;4.54;72.98;100054.70;1793530;79;21275;-57
2020/12/25 15:02:52;;;;;;;31.17;12.68;;;;;;;4.55;73.01;100057.76;1802814;79;21828;-57
2020/12/25 15:05:57;;;;;;;26.77;12.37;;;;;;;4.57;73.09;100055.77;1803272;79;21338;-56
2020/12/25 15:09:03;;;;;;;30.37;15.23;;;;;;;4.58;73.06;100053.92;1803322;79;21263;-56
2020/12/25 15:12:10;;;;;;;28.38;16.32;;;;;;;4.54;73.05;100057.41;1801914;79;21348;-56
2020/12/25 15:15:14;;;;;;;26.02;13.08;;;;;;;4.55;73.21;100064.53;1795590;79;21272;-56
2020/12/25 15:18:20;;;;;;;24.23;12.23;;;;;;;4.56;73.19;100061.33;1801287;79;21350;-56
2020/12/25 15:21:26;;;;;;;31.70;17.67;;;;;;;4.58;73.25;100056.11;1804279;79;21395;-56
2020/12/25 15:24:34;;;;;;;38.65;18.27;;;;;;;4.63;73.21;100069.74;1800236;77;21209;-56
2020/12/25 15:27:39;;;;;;;41.55;21.27;;;;;;;4.63;73.22;100074.64;1799275;79;21315;-55
2020/12/25 15:30:45;;;;;;;42.30;22.93;;;;;;;4.63;73.13;100073.80;1790433;79;21268;-55
2020/12/25 15:33:52;;;;;;;40.92;25.92;;;;;;;4.60;73.06;100079.86;1800589;79;21322;-55
2020/12/25 15:37:01;;;;;;;36.63;24.18;;;;;;;4.60;73.11;100075.80;1787565;79;21190;-55
2020/12/25 15:40:07;;;;;;;34.23;23.18;;;;;;;4.61;73.11;100078.85;1783830;80;21316;-56
2020/12/25 15:43:13;;;;;;;35.40;21.75;;;;;;;4.62;73.05;100074.30;1762664;80;21351;-55
2020/12/25 15:46:18;;;;;;;44.90;22.07;;;;;;;4.63;73.08;100082.28;1783146;80;21682;-55
2020/12/25 15:49:23;;;;;;;60.48;31.48;;;;;;;4.63;73.05;100080.92;1783298;80;21221;-56
2020/12/25 15:52:27;;;;;;;48.68;24.27;;;;;;;4.63;72.99;100096.84;1795028;79;21785;-57
2020/12/25 15:55:32;;;;;;;46.73;22.52;;;;;;;4.61;73.04;100091.05;1771167;81;21330;-56
2020/12/25 15:58:38;;;;;;;33.90;18.52;;;;;;;4.60;73.14;100095.27;1771117;80;21258;-55
2020/12/25 16:01:43;;;;;;;30.15;16.62;;;;;;;4.61;73.17;100082.92;1770965;81;21354;-55
2020/12/25 16:04:50;;;;;;;42.95;20.35;;;;;;;4.63;73.20;100080.58;1770770;81;21184;-56
2020/12/25 16:07:56;;;;;;;34.75;14.85;;;;;;;4.66;73.31;100076.22;1770641;80;21266;-56
2020/12/25 16:11:03;;;;;;;36.83;14.75;;;;;;;4.68;73.21;100075.06;1770241;81;21235;-55
2020/12/25 16:14:08;;;;;;;32.28;14.63;;;;;;;4.65;73.14;100066.39;1770332;81;21219;-55
2020/12/25 16:17:14;;;;;;;28.05;14.47;;;;;;;4.63;73.20;100073.28;1771093;80;21721;-56
2020/12/25 16:20:21;;;;;;;23.55;13.40;;;;;;;4.63;73.11;100076.86;1771316;81;21192;-56
2020/12/25 16:23:25;;;;;;;31.80;14.87;;;;;;;4.63;73.27;100074.64;1771161;80;21338;-55
2020/12/25 16:26:31;;;;;;;31.68;15.68;;;;;;;4.65;73.14;100074.00;1781789;79;21217;-57
2020/12/25 16:29:36;;;;;;;32.85;15.40;;;;;;;4.65;72.92;100066.39;1803043;79;21244;-56
2020/12/25 16:32:41;;;;;;;39.78;15.20;;;;;;;4.61;72.89;100062.59;1802985;79;21204;-56
2020/12/25 16:35:46;;;;;;;29.10;15.20;;;;;;;4.61;72.86;100069.89;1803332;79;21217;-57
2020/12/25 16:38:52;;;;;;;29.42;16.50;;;;;;;4.60;73.00;100070.38;1802683;79;21413;-56
2020/12/25 16:41:58;;;;;;;27.02;14.63;;;;;;;4.61;73.13;100078.02;1803229;79;21208;-56
2020/12/25 16:45:04;;;;;;;36.40;15.58;;;;;;;4.61;73.10;100080.20;1766699;81;21353;-56
2020/12/25 16:48:09;;;;;;;36.33;17.17;;;;;;;4.62;73.18;100086.50;1777354;79;21164;-56
2020/12/25 16:51:13;;;;;;;42.60;15.85;;;;;;;4.66;73.21;100088.42;1798326;79;21185;-56
2020/12/25 16:54:19;;;;;;;33.98;14.87;;;;;;;4.66;73.16;100080.29;1791121;79;21331;-56
2020/12/25 16:57:25;;;;;;;48.78;16.55;;;;;;;4.67;73.13;100084.20;1801035;79;21723;-57
2020/12/25 17:00:31;;;;;;;30.02;16.05;;;;;;;4.63;73.05;100082.28;1802129;79;21167;-56
2020/12/25 17:03:36;;;;;;;24.92;15.35;;;;;;;4.63;73.02;100095.49;1798662;79;21686;-56
2020/12/25 17:06:43;;;;;;;33.40;17.23;;;;;;;4.63;73.10;100100.91;1803358;79;21189;-57
2020/12/25 17:09:51;;;;;;;32.25;16.42;;;;;;;4.65;73.09;100102.47;1796678;79;21803;-57
2020/12/25 17:12:55;;;;;;;45.23;18.10;;;;;;;4.63;72.94;100114.81;1828501;78;21395;-57
2020/12/25 17:16:01;;;;;;;44.80;19.60;;;;;;;4.64;72.94;100123.81;1769135;79;21330;-57
2020/12/25 17:19:06;;;;;;;42.93;21.30;;;;;;;4.59;72.67;100107.12;1792123;79;21288;-57
2020/12/25 17:22:11;;;;;;;36.98;19.98;;;;;;;4.57;72.79;100101.84;1790366;79;21183;-56
2020/12/25 17:25:16;;;;;;;58.50;27.82;;;;;;;4.57;72.68;100104.55;1797966;79;21219;-57
2020/12/25 17:28:22;;;;;;;48.02;26.33;;;;;;;4.57;72.81;100103.20;1763781;80;21874;-56
2020/12/25 17:31:27;;;;;;;63.95;26.93;;;;;;;4.59;72.90;100099.85;1776725;80;21740;-56
2020/12/25 17:34:32;;;;;;;54.83;27.00;;;;;;;4.63;72.96;100106.67;1797583;80;21335;-57
2020/12/25 17:37:37;;;;;;;54.90;27.62;;;;;;;4.65;73.00;100102.98;1798216;80;21297;-56
2020/12/25 17:40:45;;;;;;;55.25;30.32;;;;;;;4.64;72.90;100100.77;1796472;80;21251;-56
2020/12/25 17:43:50;;;;;;;63.87;32.95;;;;;;;4.65;72.85;100111.13;1798360;80;21351;-57
2020/12/25 17:46:56;;;;;;;60.50;32.67;;;;;;;4.66;72.83;100109.62;1798337;80;21196;-56
2020/12/25 17:50:01;;;;;;;58.83;31.48;;;;;;;4.67;72.78;100111.80;1797689;80;21276;-56
2020/12/25 17:53:06;;;;;;;62.33;28.40;;;;;;;4.66;72.75;100112.81;1798168;80;21185;-56
2020/12/25 17:56:11;;;;;;;60.85;32.03;;;;;;;4.65;72.65;100135.00;1798825;80;21795;-57
2020/12/25 17:59:16;;;;;;;58.42;29.52;;;;;;;4.65;72.77;100132.80;1787104;79;21208;-57
2020/12/25 18:02:24;;;;;;;60.05;31.10;;;;;;;4.63;72.69;100136.50;1786549;80;21845;-56
2020/12/25 18:05:31;;;;;;;72.50;36.93;;;;;;;4.66;72.59;100135.37;1784326;79;21176;-56
2020/12/25 18:08:37;;;;;;;63.28;34.03;;;;;;;4.66;72.57;100134.51;1742653;82;21228;-57
2020/12/25 18:11:44;;;;;;;62.95;34.35;;;;;;;4.63;72.64;100132.43;1754238;80;21255;-56
2020/12/25 18:14:50;;;;;;;68.95;34.67;;;;;;;4.65;72.73;100147.72;1794708;80;21204;-56
2020/12/25 18:17:55;;;;;;;77.90;34.38;;;;;;;4.68;72.77;100152.84;1794266;80;21279;-56
2020/12/25 18:21:05;;;;;;;77.45;36.45;;;;;;;4.68;72.71;100144.72;1792473;80;21546;-56
2020/12/25 18:24:11;;;;;;;65.78;34.55;;;;;;;4.67;72.46;100141.13;1773875;80;21215;-55
2020/12/25 18:27:16;;;;;;;95.53;46.77;;;;;;;4.66;72.45;100150.28;1792121;78;21219;-56
2020/12/25 18:30:22;;;;;;;125.47;55.70;;;;;;;4.65;72.46;100138.23;1787862;79;21253;-56
2020/12/25 18:33:27;;;;;;;98.00;49.45;;;;;;;4.66;72.44;100138.08;1743576;82;21224;-57
2020/12/25 18:36:32;;;;;;;110.48;48.25;;;;;;;4.67;72.43;100141.63;1765485;81;21164;-56
2020/12/25 18:39:37;;;;;;;108.37;50.43;;;;;;;4.66;72.45;100147.57;1765063;81;21365;-56
2020/12/25 18:42:43;;;;;;;117.97;50.73;;;;;;;4.63;72.36;100145.98;1765007;81;21362;-57
2020/12/25 18:45:48;;;;;;;95.47;46.55;;;;;;;4.61;72.52;100133.06;1765050;81;21287;-56
2020/12/25 18:48:53;;;;;;;91.82;45.08;;;;;;;4.63;72.71;100137.51;1765524;81;21200;-56
2020/12/25 18:52:00;;;;;;;98.37;48.02;;;;;;;4.63;72.59;100147.34;1765956;81;21184;-56
2020/12/25 18:55:12;;;;;;;94.28;47.38;;;;;;;4.63;72.41;100145.98;1770905;80;21301;-55
2020/12/25 18:58:19;;;;;;;108.03;50.55;;;;;;;4.65;72.52;100152.62;1755956;79;21249;-56
2020/12/25 19:01:26;;;;;;;118.87;56.05;;;;;;;4.66;72.60;100159.77;1770661;81;21206;-56
2020/12/25 19:04:31;;;;;;;98.15;49.33;;;;;;;4.66;72.55;100146.70;1765236;80;21244;-56
2020/12/25 19:07:37;;;;;;;94.65;51.68;;;;;;;4.63;72.42;100141.05;1776906;79;21221;-56
2020/12/25 19:10:42;;;;;;;66.60;33.92;;;;;;;4.61;72.34;100139.84;1793518;79;21322;-55
2020/12/25 19:13:47;;;;;;;74.00;32.48;;;;;;;4.61;72.37;100136.30;1804816;79;21348;-55
2020/12/25 19:16:51;;;;;;;58.75;25.02;;;;;;;4.59;72.37;100124.25;1767657;79;21189;-55
2020/12/25 19:19:58;;;;;;;54.77;27.32;;;;;;;4.56;72.32;100128.61;1780356;79;21339;-56
2020/12/25 19:23:03;;;;;;;54.35;23.92;;;;;;;4.55;72.50;100145.84;1772660;78;21383;-56
2020/12/25 19:26:10;;;;;;;40.17;20.25;;;;;;;4.54;72.76;100133.30;1796351;79;21364;-56
2020/12/25 19:29:16;;;;;;;44.80;23.18;;;;;;;4.56;72.83;100120.96;1772971;78;21342;-56
2020/12/25 19:32:20;;;;;;;50.15;27.22;;;;;;;4.57;72.76;100120.81;1797182;79;21247;-56
2020/12/25 19:35:26;;;;;;;44.27;21.73;;;;;;;4.57;72.61;100131.66;1778292;79;21756;-55
2020/12/25 19:38:31;;;;;;;47.65;20.65;;;;;;;4.60;72.75;100137.28;1773500;79;21193;-58
2020/12/25 19:41:39;;;;;;;57.03;24.12;;;;;;;4.63;72.82;100136.50;1802370;79;21342;-57
2020/12/25 19:44:44;;;;;;;54.58;22.67;;;;;;;4.65;72.52;100128.22;1803226;79;21809;-56
2020/12/25 19:47:49;;;;;;;49.95;22.93;;;;;;;4.63;72.44;100124.78;1783521;79;21351;-57
2020/12/25 19:50:54;;;;;;;60.67;29.65;;;;;;;4.63;72.52;100137.85;1777644;78;21176;-55
2020/12/25 19:54:00;;;;;;;75.32;34.83;;;;;;;4.66;72.63;100141.28;1767742;79;21342;-56
2020/12/25 19:57:07;;;;;;;90.32;42.55;;;;;;;4.68;72.68;100144.72;1768186;81;21358;-57
2020/12/25 20:00:14;;;;;;;89.47;41.42;;;;;;;4.72;72.62;100140.20;1768999;81;21264;-57
2020/12/25 20:03:20;;;;;;;107.85;43.33;;;;;;;4.75;72.55;100147.18;1744423;81;21357;-56
2020/12/25 20:06:28;;;;;;;111.08;53.20;;;;;;;4.75;72.47;100140.41;1793932;79;21719;-56
2020/12/25 20:09:34;;;;;;;100.60;45.90;;;;;;;4.73;72.25;100128.84;1790433;79;21354;-57
2020/12/25 20:12:40;;;;;;;97.47;39.95;;;;;;;4.72;72.34;100132.56;1789301;79;21368;-57
2020/12/25 20:15:45;;;;;;;93.70;38.38;;;;;;;4.69;72.44;100143.70;1767826;81;21354;-56
2020/12/25 20:18:49;;;;;;;85.28;35.73;;;;;;;4.68;72.55;100148.26;1767876;80;21260;-56
2020/12/25 20:21:55;;;;;;;74.37;34.63;;;;;;;4.68;72.55;100135.22;1769265;80;21362;-56
2020/12/25 20:25:01;;;;;;;67.82;33.67;;;;;;;4.68;72.58;100133.88;1768438;80;21347;-56
2020/12/25 20:28:07;;;;;;;95.70;47.55;;;;;;;4.67;72.57;100146.56;1769205;80;21331;-56
2020/12/25 20:31:12;;;;;;;70.05;34.03;;;;;;;4.67;72.62;100149.76;1768534;81;21338;-56
2020/12/25 20:34:18;;;;;;;59.00;28.73;;;;;;;4.68;72.58;100146.07;1768595;81;21923;-56
2020/12/25 20:37:24;;;;;;;58.38;27.07;;;;;;;4.62;72.41;100151.55;1796212;80;21682;-57
2020/12/25 20:40:29;;;;;;;48.50;24.47;;;;;;;4.54;72.69;100165.83;1796623;79;21316;-56
2020/12/25 20:43:37;;;;;;;46.18;23.80;;;;;;;4.56;72.92;100153.48;1773729;81;21215;-56
2020/12/25 20:46:42;;;;;;;51.73;25.17;;;;;;;4.59;72.97;100153.20;1797850;79;21205;-56
2020/12/25 20:49:47;;;;;;;53.73;28.20;;;;;;;4.61;72.96;100172.37;1774390;81;21247;-56
2020/12/25 20:52:53;;;;;;;60.20;27.37;;;;;;;4.66;72.93;100188.23;1798178;79;21355;-56
2020/12/25 20:55:59;;;;;;;54.25;25.23;;;;;;;4.68;72.81;100190.80;1796996;80;21347;-56
2020/12/25 20:59:05;;;;;;;42.20;22.42;;;;;;;4.70;72.81;100190.13;1774316;81;21733;-57
2020/12/25 21:02:10;;;;;;;35.80;20.75;;;;;;;4.69;72.65;100178.95;1796992;80;21335;-56
2020/12/25 21:05:16;;;;;;;50.73;23.95;;;;;;;4.67;72.70;100179.09;1774215;81;21335;-56
2020/12/25 21:08:21;;;;;;;47.38;22.10;;;;;;;4.69;72.88;100191.14;1796853;80;21813;-56
2020/12/25 21:11:31;;;;;;;46.35;23.73;;;;;;;4.71;72.92;100193.22;1774326;81;21197;-55
2020/12/25 21:14:38;;;;;;;53.90;24.60;;;;;;;4.72;72.97;100201.21;1810937;78;21334;-56
2020/12/25 21:17:45;;;;;;;35.23;19.00;;;;;;;4.72;72.98;100205.27;1813174;78;21532;-56
2020/12/25 21:20:53;;;;;;;31.90;17.87;;;;;;;4.74;73.00;100197.00;1827838;78;21332;-56
2020/12/25 21:23:58;;;;;;;30.12;14.03;;;;;;;4.75;72.97;100189.20;1765926;80;21236;-56
2020/12/25 21:27:04;;;;;;;26.97;12.78;;;;;;;4.78;73.06;100197.92;1765085;81;21356;-56
2020/12/25 21:30:10;;;;;;;33.48;14.00;;;;;;;4.82;73.06;100199.84;1773944;79;21724;-56
2020/12/25 21:33:16;;;;;;;31.45;14.58;;;;;;;4.87;72.94;100186.72;1794213;79;21208;-56
2020/12/25 21:36:21;;;;;;;24.90;13.13;;;;;;;4.88;72.81;100189.77;1740589;82;21260;-56
2020/12/25 21:39:26;;;;;;;24.95;13.48;;;;;;;4.86;72.79;100195.34;1738610;82;21386;-55
2020/12/25 21:42:31;;;;;;;27.82;14.55;;;;;;;4.86;72.78;100202.61;1739376;81;21402;-57
2020/12/25 21:45:39;;;;;;;35.03;16.70;;;;;;;4.89;72.81;100200.97;1730749;81;21354;-56
2020/12/25 21:48:44;;;;;;;33.23;17.15;;;;;;;4.92;72.77;100202.03;1739054;81;21375;-56
2020/12/25 21:51:50;;;;;;;37.53;15.53;;;;;;;4.93;72.75;100203.23;1739835;81;21347;-56
2020/12/25 21:54:56;;;;;;;28.92;14.05;;;;;;;4.95;72.70;100185.50;1739486;81;21316;-56
2020/12/25 21:58:01;;;;;;;28.27;13.28;;;;;;;4.95;72.63;100186.33;1728323;82;21213;-56
2020/12/25 22:01:08;;;;;;;28.77;14.10;;;;;;;4.95;72.56;100185.50;1739624;81;21393;-56
2020/12/25 22:04:14;;;;;;;30.27;15.13;;;;;;;4.95;72.52;100190.92;1740660;81;21362;-55
2020/12/25 22:07:19;;;;;;;39.23;14.38;;;;;;;4.95;72.44;100184.14;1728144;82;21355;-55
2020/12/25 22:10:25;;;;;;;35.05;16.73;;;;;;;4.96;72.37;100179.06;1738680;82;21339;-55
2020/12/25 22:13:33;;;;;;;44.05;14.65;;;;;;;4.91;72.27;100174.56;1727407;82;21423;-56
2020/12/25 22:16:39;;;;;;;31.02;14.53;;;;;;;4.88;72.43;100184.35;1727294;83;21355;-55